Time,TemperatureF,DewpointF,PressureIn,WindDirection,WindDirectionDegrees,WindSpeedMPH,WindSpeedGustMPH,Humidity,HourlyPrecipIn,Conditions,Clouds,dailyrainin,SolarRadiationWatts/m^2,SoftwareType,DateUTC
2013-03-01 00:22:00,27.0,21.0,30.47,SSW,204,2.0,6.0,77,-99.99,,,-99.99,0.000000,,2013-03-01 08:22:00,
2013-03-01 03:22:00,25.0,21.0,30.48,North,358,1.0,1.0,86,-99.99,,,-99.99,0.000000,,2013-03-01 11:22:00,
2013-03-01 03:32:00,25.0,21.0,30.48,North,358,1.0,1.0,86,-99.99,,,-99.99,0.000000,,2013-03-01 11:32:00,
2013-03-01 04:21:00,22.0,20.0,30.48,WNW,293,1.0,3.0,90,-99.99,,,-99.99,0.000000,,2013-03-01 12:21:00,
2013-03-01 05:21:00,21.0,19.0,30.48,SE,129,0.0,1.0,90,-99.99,,,-99.99,0.000000,,2013-03-01 13:21:00,
2013-03-01 06:21:00,20.0,18.0,30.48,ENE,69,2.0,3.0,90,-99.99,,,-99.99,0.000000,,2013-03-01 14:21:00,
2013-03-01 08:40:00,39.0,28.0,30.49,ENE,59,3.0,4.0,66,-99.99,,,-99.99,370.000000,,2013-03-01 16:40:00,
2013-03-01 09:21:00,39.0,28.0,30.49,ENE,59,3.0,4.0,66,-99.99,,,-99.99,370.000000,,2013-03-01 17:21:00,
2013-03-01 09:31:00,39.0,28.0,30.49,ENE,59,3.0,4.0,66,-99.99,,,-99.99,370.000000,,2013-03-01 17:31:00,
2013-03-01 09:40:00,46.0,28.0,30.47,ESE,110,1.0,4.0,49,-99.99,,,-99.99,550.000000,,2013-03-01 17:40:00,
2013-03-01 10:22:00,46.0,28.0,30.47,ESE,110,1.0,4.0,49,-99.99,,,-99.99,550.000000,,2013-03-01 18:22:00,
2013-03-01 10:31:00,46.0,28.0,30.47,ESE,110,1.0,4.0,49,-99.99,,,-99.99,550.000000,,2013-03-01 18:31:00,
2013-03-01 10:40:00,52.0,28.0,30.46,NE,52,2.0,5.0,40,-99.99,,,-99.99,690.000000,,2013-03-01 18:40:00,
2013-03-01 11:21:00,52.0,28.0,30.46,NE,52,2.0,5.0,40,-99.99,,,-99.99,690.000000,,2013-03-01 19:21:00,
2013-03-01 11:31:00,52.0,28.0,30.46,NE,52,2.0,5.0,40,-99.99,,,-99.99,690.000000,,2013-03-01 19:31:00,
2013-03-01 11:40:00,57.0,27.0,30.43,ESE,116,2.0,4.0,31,-99.99,,,-99.99,760.000000,,2013-03-01 19:40:00,
2013-03-01 12:21:00,57.0,27.0,30.43,ESE,116,2.0,4.0,31,-99.99,,,-99.99,760.000000,,2013-03-01 20:21:00,
2013-03-01 12:31:00,57.0,27.0,30.43,ESE,116,2.0,4.0,31,-99.99,,,-99.99,760.000000,,2013-03-01 20:31:00,
2013-03-01 12:40:00,60.0,26.0,30.40,North,5,3.0,5.0,27,-99.99,,,-99.99,760.000000,,2013-03-01 20:40:00,
2013-03-01 13:21:00,60.0,26.0,30.40,North,5,3.0,5.0,27,-99.99,,,-99.99,760.000000,,2013-03-01 21:21:00,
2013-03-01 13:31:00,60.0,26.0,30.40,North,5,3.0,5.0,27,-99.99,,,-99.99,760.000000,,2013-03-01 21:31:00,
2013-03-01 13:40:00,62.0,25.0,30.36,NW,322,3.0,7.0,24,-99.99,,,-99.99,700.000000,,2013-03-01 21:40:00,
2013-03-01 14:21:00,62.0,25.0,30.36,NW,322,3.0,7.0,24,-99.99,,,-99.99,700.000000,,2013-03-01 22:21:00,
2013-03-01 14:31:00,62.0,25.0,30.36,NW,322,3.0,7.0,24,-99.99,,,-99.99,700.000000,,2013-03-01 22:31:00,
2013-03-01 14:40:00,64.0,24.0,30.34,WNW,296,3.0,7.0,22,-99.99,,,-99.99,580.000000,,2013-03-01 22:40:00,
2013-03-01 15:31:00,64.0,24.0,30.34,WNW,296,3.0,7.0,22,-99.99,,,-99.99,580.000000,,2013-03-01 23:31:00,
2013-03-01 15:40:00,65.0,25.0,30.33,North,6,4.0,9.0,22,-99.99,,,-99.99,410.000000,,2013-03-01 23:40:00,
2013-03-01 16:31:00,65.0,25.0,30.33,North,6,4.0,9.0,22,-99.99,,,-99.99,410.000000,,2013-03-02 00:31:00,
2013-03-01 16:40:00,64.0,26.0,30.32,NNE,15,7.0,9.0,24,-99.99,,,-99.99,200.000000,,2013-03-02 00:40:00,
2013-03-01 17:21:00,64.0,26.0,30.32,NNE,15,7.0,9.0,24,-99.99,,,-99.99,200.000000,,2013-03-02 01:21:00,
2013-03-01 17:31:00,64.0,26.0,30.32,NNE,15,7.0,9.0,24,-99.99,,,-99.99,200.000000,,2013-03-02 01:31:00,
2013-03-01 18:21:00,51.0,27.0,30.31,WNW,295,5.0,7.0,38,-99.99,,,-99.99,20.000000,,2013-03-02 02:21:00,
2013-03-01 18:40:00,49.0,26.0,30.31,WNW,297,5.0,7.0,41,-99.99,,,-99.99,0.000000,,2013-03-02 02:40:00,
2013-03-01 19:21:00,49.0,26.0,30.31,WNW,297,5.0,7.0,41,-99.99,,,-99.99,0.000000,,2013-03-02 03:21:00,
2013-03-01 19:32:00,49.0,26.0,30.31,WNW,297,5.0,7.0,41,-99.99,,,-99.99,0.000000,,2013-03-02 03:32:00,
2013-03-01 19:40:00,49.0,26.0,30.32,NW,304,5.0,8.0,40,-99.99,,,-99.99,0.000000,,2013-03-02 03:40:00,
2013-03-01 20:21:00,49.0,26.0,30.32,NW,304,5.0,8.0,40,-99.99,,,-99.99,0.000000,,2013-03-02 04:21:00,
2013-03-01 20:32:00,49.0,26.0,30.32,NW,304,5.0,8.0,40,-99.99,,,-99.99,0.000000,,2013-03-02 04:32:00,
2013-03-01 20:40:00,42.0,27.0,30.34,SE,143,4.0,6.0,55,-99.99,,,-99.99,0.000000,,2013-03-02 04:40:00,
2013-03-01 21:22:00,42.0,27.0,30.34,SE,143,4.0,6.0,55,-99.99,,,-99.99,0.000000,,2013-03-02 05:22:00,
2013-03-01 21:31:00,42.0,27.0,30.34,SE,143,4.0,6.0,55,-99.99,,,-99.99,0.000000,,2013-03-02 05:31:00,
2013-03-01 22:21:00,34.0,27.0,30.36,SSE,162,3.0,4.0,75,-99.99,,,-99.99,0.000000,,2013-03-02 06:21:00,
2013-03-01 23:21:00,32.0,25.0,30.38,ESE,103,3.0,4.0,76,-99.99,,,-99.99,0.000000,,2013-03-02 07:21:00,